Time;durP1;ratioP1;P1;durP2;ratioP2;P2;SDS_P1;SDS_P2;PMS_P1;PMS_P2;Temp;Humidity;BMP_temperature;BMP_pressure;BME280_temperature;BME280_humidity;BME280_pressure;Samples;Min_cycle;Max_cycle;Signal;HPM_P1;HPM_P2
2023/08/05 00:01:29;;;;;;;11.20;5.28;;;;;;;14.92;100.00;101519.81;5284066;28;20476;-79
2023/08/05 00:04:00;;;;;;;9.10;5.20;;;;;;;14.80;100.00;101521.81;5284094;28;20055;-79
2023/08/05 00:06:32;;;;;;;8.53;5.30;;;;;;;14.97;100.00;101514.44;5284307;28;20042;-79
2023/08/05 00:09:03;;;;;;;7.23;5.00;;;;;;;14.99;100.00;101515.31;5283595;28;20102;-79
2023/08/05 00:11:34;;;;;;;6.73;5.03;;;;;;;14.91;100.00;101506.72;5283689;28;20089;-79
2023/08/05 00:14:06;;;;;;;8.17;5.00;;;;;;;14.98;100.00;101503.06;5283644;28;20112;-78
2023/08/05 00:16:37;;;;;;;9.00;5.03;;;;;;;15.05;100.00;101503.81;5283673;28;20024;-79
2023/08/05 00:19:09;;;;;;;7.90;5.53;;;;;;;14.92;100.00;101508.44;5283534;28;20028;-79
2023/08/05 00:21:40;;;;;;;8.70;5.00;;;;;;;15.11;100.00;101504.53;5283449;28;20036;-79
2023/08/05 00:24:12;;;;;;;9.97;5.00;;;;;;;15.16;100.00;101506.22;5283110;28;20047;-79
2023/08/05 00:26:43;;;;;;;6.90;5.03;;;;;;;15.23;100.00;101498.19;5283039;28;20029;-78
2023/08/05 00:29:14;;;;;;;7.63;5.00;;;;;;;15.11;100.00;101499.28;5282964;28;20036;-79
2023/08/05 00:31:46;;;;;;;7.70;5.03;;;;;;;15.16;100.00;101501.81;5282207;28;20107;-79
2023/08/05 00:34:18;;;;;;;7.32;4.60;;;;;;;15.02;100.00;101498.59;5283521;28;20102;-78
2023/08/05 00:36:49;;;;;;;8.50;5.87;;;;;;;15.01;100.00;101491.66;5283195;28;20518;-79
2023/08/05 00:39:20;;;;;;;8.03;5.67;;;;;;;15.10;100.00;101487.06;5283042;28;20028;-78
2023/08/05 00:41:52;;;;;;;9.23;5.63;;;;;;;15.12;100.00;101490.53;5283384;28;20047;-78
2023/08/05 00:44:23;;;;;;;8.53;4.97;;;;;;;15.19;100.00;101493.03;5283028;28;20033;-79
2023/08/05 00:46:56;;;;;;;8.90;5.03;;;;;;;15.29;100.00;101491.94;5282032;28;20025;-77
2023/08/05 00:49:29;;;;;;;7.45;4.65;;;;;;;14.99;100.00;101481.19;5281871;28;20282;-79
2023/08/05 00:52:01;;;;;;;5.68;4.57;;;;;;;15.13;100.00;101486.13;5283105;28;20456;-78
2023/08/05 00:54:32;;;;;;;7.77;5.10;;;;;;;15.13;100.00;101475.63;5283151;28;20125;-78
2023/08/05 00:57:04;;;;;;;6.97;4.73;;;;;;;15.09;100.00;101480.06;5281988;28;20075;-80
2023/08/05 00:59:36;;;;;;;9.90;5.30;;;;;;;15.20;100.00;101468.47;5281411;28;20404;-78
2023/08/05 01:02:07;;;;;;;7.53;4.50;;;;;;;15.22;100.00;101472.81;5282857;28;20468;-76
2023/08/05 01:04:38;;;;;;;7.47;4.93;;;;;;;14.92;100.00;101467.31;5283386;28;20219;-78
2023/08/05 01:07:11;;;;;;;8.40;5.10;;;;;;;15.00;100.00;101467.13;5283297;28;20075;-78
2023/08/05 01:09:43;;;;;;;8.25;5.53;;;;;;;14.86;100.00;101470.06;5283142;28;20080;-79
2023/08/05 01:12:14;;;;;;;7.77;5.27;;;;;;;14.89;100.00;101472.63;5283526;28;20028;-79
2023/08/05 01:14:46;;;;;;;7.33;5.30;;;;;;;14.79;100.00;101459.69;5283268;28;20020;-79
2023/08/05 01:17:17;;;;;;;10.40;6.07;;;;;;;14.73;100.00;101460.66;5283531;28;20032;-78
2023/08/05 01:19:50;;;;;;;7.37;5.50;;;;;;;14.75;100.00;101458.91;5283178;28;20115;-78
2023/08/05 01:22:26;;;;;;;;;;;;;;;14.74;100.00;101465.88;5283833;28;20090;-78
2023/08/05 01:25:06;;;;;;;9.05;6.20;;;;;;;14.52;100.00;101454.91;5284204;28;19954;-78
2023/08/05 01:27:38;;;;;;;8.77;6.22;;;;;;;14.52;100.00;101460.16;5283401;28;20090;-80
2023/08/05 01:30:10;;;;;;;10.52;6.72;;;;;;;14.56;100.00;101453.09;5281431;28;20032;-79
2023/08/05 01:32:42;;;;;;;9.35;6.18;;;;;;;14.41;100.00;101447.25;5283202;28;20431;-79
2023/08/05 01:35:14;;;;;;;9.35;6.60;;;;;;;14.38;100.00;101451.69;5283179;28;20085;-78
2023/08/05 01:37:46;;;;;;;9.25;6.40;;;;;;;14.48;100.00;101455.00;5287669;28;20037;-77
2023/08/05 01:40:18;;;;;;;;;;;;;;;14.48;100.00;101448.00;5290215;28;20036;-78
2023/08/05 01:42:49;;;;;;;10.13;6.65;;;;;;;14.27;100.00;101444.00;5289742;28;19975;-78
2023/08/05 01:45:20;;;;;;;12.33;6.67;;;;;;;14.16;100.00;101453.81;5289436;28;20079;-79
2023/08/05 01:47:52;;;;;;;8.90;6.80;;;;;;;14.22;100.00;101451.09;5289538;28;20029;-77
2023/08/05 01:50:23;;;;;;;10.37;7.03;;;;;;;14.22;100.00;101454.56;5289082;28;20472;-78
2023/08/05 01:52:54;;;;;;;8.70;7.07;;;;;;;14.28;100.00;101452.72;5289121;28;20483;-77
2023/08/05 01:55:26;;;;;;;8.13;6.50;;;;;;;14.11;100.00;101455.66;5289533;28;20036;-78
2023/08/05 01:57:57;;;;;;;7.87;6.27;;;;;;;13.99;100.00;101449.72;5288920;28;20059;-79
2023/08/05 02:00:28;;;;;;;8.37;6.77;;;;;;;13.99;100.00;101452.34;5287877;28;20039;-79
2023/08/05 02:03:00;;;;;;;11.10;6.80;;;;;;;13.93;100.00;101448.97;5303684;28;20082;-79
2023/08/05 02:05:31;;;;;;;8.83;6.87;;;;;;;13.98;100.00;101450.59;5285916;28;20039;-79
2023/08/05 02:08:03;;;;;;;9.50;6.43;;;;;;;13.92;100.00;101447.22;5286799;28;20040;-78
2023/08/05 02:10:34;;;;;;;11.57;7.13;;;;;;;13.80;100.00;101449.13;5286068;28;20078;-79
2023/08/05 02:13:06;;;;;;;14.57;7.53;;;;;;;13.77;100.00;101449.19;5287204;28;20064;-77
2023/08/05 02:15:37;;;;;;;9.90;7.20;;;;;;;13.62;100.00;101449.41;5286487;28;20033;-77
2023/08/05 02:18:09;;;;;;;9.33;7.43;;;;;;;13.66;100.00;101454.56;5286786;28;20040;-78
2023/08/05 02:20:40;;;;;;;8.37;7.47;;;;;;;13.67;100.00;101452.84;5287358;28;20033;-76
2023/08/05 02:23:11;;;;;;;10.30;7.37;;;;;;;13.51;100.00;101444.34;5286824;28;20071;-77
2023/08/05 02:25:43;;;;;;;10.37;8.30;;;;;;;13.48;100.00;101447.84;5286237;28;20024;-76
2023/08/05 02:28:14;;;;;;;11.10;7.93;;;;;;;13.54;100.00;101443.41;5284982;28;20119;-77
2023/08/05 02:30:45;;;;;;;13.60;7.97;;;;;;;13.41;100.00;101447.97;5286648;28;20082;-78
2023/08/05 02:33:17;;;;;;;11.73;8.20;;;;;;;13.33;100.00;101440.22;5286087;28;20475;-77
2023/08/05 02:35:48;;;;;;;9.97;7.93;;;;;;;13.34;100.00;101436.72;5286889;28;20472;-78
2023/08/05 02:38:19;;;;;;;10.43;8.20;;;;;;;13.25;100.00;101434.19;5303398;28;20484;-78
2023/08/05 02:40:52;;;;;;;15.63;8.77;;;;;;;13.36;100.00;101429.69;5285322;28;20441;-79
2023/08/05 02:43:23;;;;;;;8.57;7.70;;;;;;;13.36;100.00;101426.22;5285332;28;20043;-79
2023/08/05 02:45:56;;;;;;;11.33;9.00;;;;;;;13.30;100.00;101433.25;5286540;28;20032;-78
2023/08/05 02:48:27;;;;;;;;;;;;;;;13.34;100.00;101431.47;5286129;28;20035;-79
2023/08/05 02:50:59;;;;;;;10.93;9.65;;;;;;;13.31;100.00;101429.75;5287035;28;19912;-78
2023/08/05 02:53:30;;;;;;;10.43;9.00;;;;;;;13.15;100.00;101420.34;5288505;28;20058;-78
2023/08/05 02:56:02;;;;;;;10.20;8.63;;;;;;;13.26;100.00;101420.22;5285587;28;20094;-78
2023/08/05 02:58:33;;;;;;;11.33;9.00;;;;;;;13.21;100.00;101419.41;5286719;28;20032;-79
2023/08/05 03:01:08;;;;;;;13.80;9.10;;;;;;;13.27;100.00;101420.19;5286369;28;20071;-78
2023/08/05 03:03:40;;;;;;;10.15;9.02;;;;;;;13.34;100.00;101418.38;5286151;28;20076;-78
2023/08/05 03:06:11;;;;;;;14.03;9.07;;;;;;;13.34;100.00;101421.00;5286377;28;20203;-79
2023/08/05 03:08:42;;;;;;;11.77;9.13;;;;;;;13.37;100.00;101417.47;5284426;28;20127;-78
2023/08/05 03:11:13;;;;;;;11.30;8.93;;;;;;;13.33;100.00;101403.56;5285916;28;20421;-79
2023/08/05 03:13:45;;;;;;;14.80;9.50;;;;;;;13.23;100.00;101394.06;5285226;28;20036;-77
2023/08/05 03:16:16;;;;;;;14.40;9.13;;;;;;;13.26;100.00;101396.66;5285365;28;20028;-77
2023/08/05 03:18:48;;;;;;;11.30;8.37;;;;;;;13.20;100.00;101397.63;5285176;28;20056;-78
2023/08/05 03:21:19;;;;;;;12.67;8.97;;;;;;;13.10;100.00;101398.59;5283608;28;20027;-77
2023/08/05 03:23:50;;;;;;;11.03;9.87;;;;;;;13.15;100.00;101391.56;5284989;28;20033;-77
2023/08/05 03:26:22;;;;;;;10.87;9.70;;;;;;;13.10;100.00;101386.38;5284793;28;20501;-77
2023/08/05 03:28:53;;;;;;;13.07;9.37;;;;;;;13.11;100.00;101390.72;5284589;28;20082;-77
2023/08/05 03:31:24;;;;;;;13.03;9.80;;;;;;;13.12;100.00;101383.75;5284177;28;20080;-76
2023/08/05 03:33:56;;;;;;;13.93;9.03;;;;;;;13.09;100.00;101389.03;5300272;28;20517;-77
2023/08/05 03:36:27;;;;;;;10.57;9.13;;;;;;;13.02;100.00;101387.38;5282974;28;20079;-76
2023/08/05 03:38:58;;;;;;;10.57;8.47;;;;;;;12.99;100.00;101383.03;5284391;28;20037;-77
2023/08/05 03:41:30;;;;;;;10.77;8.43;;;;;;;13.02;100.00;101380.38;5284442;28;20036;-79
2023/08/05 03:44:01;;;;;;;16.73;9.80;;;;;;;12.97;100.00;101378.72;5284179;28;20373;-78
2023/08/05 03:46:33;;;;;;;13.93;10.47;;;;;;;12.92;100.00;101370.94;5284378;28;20383;-78
2023/08/05 03:49:04;;;;;;;11.90;9.40;;;;;;;12.94;100.00;101363.91;5284577;28;20052;-77
2023/08/05 03:51:36;;;;;;;14.07;9.97;;;;;;;12.94;100.00;101358.69;5284659;28;20041;-77
2023/08/05 03:54:07;;;;;;;11.83;10.07;;;;;;;12.86;100.00;101363.16;5283301;28;20390;-78
2023/08/05 03:56:39;;;;;;;13.43;10.70;;;;;;;12.90;100.00;101359.63;5284047;28;20115;-78
2023/08/05 03:59:10;;;;;;;11.57;10.37;;;;;;;12.93;100.00;101354.34;5299404;28;20029;-78
2023/08/05 04:01:42;;;;;;;12.30;10.93;;;;;;;12.95;100.00;101349.97;5283901;28;20361;-78
2023/08/05 04:04:13;;;;;;;13.67;10.73;;;;;;;12.93;100.00;101346.50;5283815;28;20056;-78
2023/08/05 04:06:45;;;;;;;11.40;10.27;;;;;;;12.97;100.00;101342.94;5283845;28;20458;-78
2023/08/05 04:09:19;;;;;;;12.77;10.82;;;;;;;13.02;100.00;101343.75;5283826;28;20074;-77
2023/08/05 04:11:51;;;;;;;12.63;11.23;;;;;;;12.89;100.00;101348.28;5299443;28;20025;-78
2023/08/05 04:14:24;;;;;;;17.30;11.38;;;;;;;12.89;100.00;101342.19;5283855;28;20060;-78
2023/08/05 04:16:56;;;;;;;11.05;9.90;;;;;;;13.00;100.00;101348.13;5283685;28;20111;-78
2023/08/05 04:19:27;;;;;;;13.60;10.53;;;;;;;12.89;100.00;101348.28;5282619;28;20124;-79
2023/08/05 04:22:00;;;;;;;15.43;12.37;;;;;;;12.89;100.00;101352.66;5283414;28;20075;-80
2023/08/05 04:24:32;;;;;;;15.73;11.43;;;;;;;12.94;100.00;101337.75;5283818;28;20116;-80
2023/08/05 04:27:04;;;;;;;12.13;10.82;;;;;;;12.98;100.00;101325.50;5283604;28;20383;-79
2023/08/05 04:29:35;;;;;;;18.83;11.17;;;;;;;12.93;100.00;101321.19;5281774;28;20032;-79
2023/08/05 04:32:07;;;;;;;14.80;11.27;;;;;;;12.96;100.00;101315.06;5282206;28;20024;-78
2023/08/05 04:34:38;;;;;;;15.57;11.73;;;;;;;12.98;100.00;101308.06;5282192;28;20037;-78
2023/08/05 04:37:21;;;;;;;12.80;11.50;;;;;;;13.06;100.00;101302.72;5282264;28;20029;-79
2023/08/05 04:39:52;;;;;;;12.73;10.98;;;;;;;13.15;100.00;101305.16;5282109;28;20186;-79
2023/08/05 04:42:23;;;;;;;12.90;11.30;;;;;;;13.01;100.00;101301.88;5283268;28;20485;-77
2023/08/05 04:44:55;;;;;;;12.67;11.17;;;;;;;13.08;100.00;101304.41;5283231;28;20028;-77
2023/08/05 04:47:27;;;;;;;14.20;11.37;;;;;;;13.03;100.00;101294.91;5283215;28;20086;-77
2023/08/05 04:49:58;;;;;;;12.30;10.77;;;;;;;13.08;100.00;101286.06;5283116;28;20033;-77
2023/08/05 04:52:30;;;;;;;13.37;11.27;;;;;;;13.10;100.00;101293.91;5283184;28;20037;-77
2023/08/05 04:55:11;;;;;;;14.93;11.52;;;;;;;13.11;100.00;101290.41;5283151;28;20037;-76
2023/08/05 04:57:44;;;;;;;13.25;11.52;;;;;;;13.11;100.00;101296.50;5281867;28;20036;-77
2023/08/05 05:00:15;;;;;;;13.05;10.82;;;;;;;13.08;100.00;101291.31;5282725;28;20039;-76
2023/08/05 05:02:49;;;;;;;13.30;11.13;;;;;;;13.17;100.00;101298.19;5282783;28;20036;-77
2023/08/05 05:05:21;;;;;;;15.18;11.50;;;;;;;13.18;100.00;101299.03;5282922;28;20029;-77
2023/08/05 05:07:52;;;;;;;15.43;10.97;;;;;;;13.20;100.00;101303.38;5281962;28;20036;-78
2023/08/05 05:10:24;;;;;;;14.13;12.47;;;;;;;13.27;100.00;101301.50;5281697;28;20077;-77
2023/08/05 05:12:57;;;;;;;14.93;11.20;;;;;;;13.20;100.00;101294.63;5287008;28;20380;-78
2023/08/05 05:15:28;;;;;;;17.10;12.18;;;;;;;13.20;100.00;101290.28;5287298;28;20035;-78
2023/08/05 05:18:00;;;;;;;13.13;11.33;;;;;;;13.28;100.00;101290.13;5287408;28;20476;-79
2023/08/05 05:20:31;;;;;;;13.80;10.80;;;;;;;13.22;100.00;101296.34;5287009;28;20036;-78
2023/08/05 05:23:02;;;;;;;12.97;11.77;;;;;;;13.30;100.00;101291.00;5287083;28;20059;-78
2023/08/05 05:25:34;;;;;;;14.53;11.60;;;;;;;13.29;100.00;101292.72;5287164;28;20029;-79
2023/08/05 05:28:05;;;;;;;18.77;11.30;;;;;;;13.37;100.00;101292.66;5287258;28;20040;-79
2023/08/05 05:30:37;;;;;;;12.63;10.87;;;;;;;13.41;100.00;101291.72;5286133;28;20040;-78
2023/08/05 05:33:08;;;;;;;14.50;11.87;;;;;;;13.47;100.00;101286.34;5286784;28;20029;-78
2023/08/05 05:35:40;;;;;;;13.80;11.57;;;;;;;13.58;100.00;101285.31;5287071;28;20096;-78
2023/08/05 05:38:11;;;;;;;17.00;12.70;;;;;;;13.48;100.00;101282.84;5286668;28;20387;-78
2023/08/05 05:40:42;;;;;;;13.07;11.30;;;;;;;13.61;100.00;101283.50;5285639;28;20060;-79
2023/08/05 05:43:14;;;;;;;16.40;12.23;;;;;;;13.62;100.00;101282.63;5285705;28;20033;-78
2023/08/05 05:45:46;;;;;;;14.60;12.60;;;;;;;13.64;100.00;101285.22;5286519;28;20100;-78
2023/08/05 05:48:18;;;;;;;16.13;11.50;;;;;;;13.85;100.00;101283.97;5286782;28;20107;-78
2023/08/05 05:50:52;;;;;;;16.73;11.10;;;;;;;13.96;100.00;101279.41;5286418;28;20135;-78
2023/08/05 05:53:23;;;;;;;15.95;11.10;;;;;;;14.04;100.00;101284.50;5286668;28;20039;-78
2023/08/05 05:55:55;;;;;;;13.57;10.53;;;;;;;14.23;100.00;101283.25;5286596;28;20037;-78
2023/08/05 05:58:27;;;;;;;13.67;11.93;;;;;;;14.36;100.00;101277.72;5286488;28;20032;-77
2023/08/05 06:01:00;;;;;;;;;;;;;;;14.63;100.00;101278.94;5286577;28;20472;-80
2023/08/05 06:03:33;;;;;;;14.07;11.45;;;;;;;14.58;100.00;101278.16;5286007;28;19955;-79
2023/08/05 06:06:04;;;;;;;12.90;10.40;;;;;;;14.66;100.00;101272.75;5286524;28;20045;-80
2023/08/05 06:08:36;;;;;;;13.90;11.10;;;;;;;14.81;100.00;101264.56;5286218;28;20032;-80
2023/08/05 06:11:08;;;;;;;15.30;9.50;;;;;;;14.95;100.00;101267.72;5286411;28;20483;-80
2023/08/05 06:13:39;;;;;;;10.45;9.10;;;;;;;15.05;100.00;101267.50;5286564;28;20032;-80
2023/08/05 06:16:11;;;;;;;11.70;9.47;;;;;;;15.05;100.00;101257.88;5286364;28;20544;-81
2023/08/05 06:18:42;;;;;;;10.43;9.23;;;;;;;15.12;100.00;101269.94;5286351;28;20127;-82
2023/08/05 06:21:14;;;;;;;9.90;8.90;;;;;;;15.27;100.00;101270.47;5284924;28;20056;-80
2023/08/05 06:23:45;;;;;;;11.67;8.60;;;;;;;15.31;100.00;101273.00;5285328;28;20051;-80
2023/08/05 06:26:16;;;;;;;10.97;8.23;;;;;;;15.44;100.00;101265.66;5285446;28;20028;-79
2023/08/05 06:28:49;;;;;;;11.90;8.17;;;;;;;15.49;100.00;101255.91;5285571;28;20036;-80
2023/08/05 06:31:20;;;;;;;13.07;7.15;;;;;;;15.64;100.00;101265.16;5304106;28;20032;-80
2023/08/05 06:33:51;;;;;;;9.80;7.23;;;;;;;15.76;100.00;101263.09;5290529;28;20029;-82
2023/08/05 06:36:23;;;;;;;7.33;6.20;;;;;;;15.76;100.00;101265.72;5288328;28;20032;-83
2023/08/05 06:38:54;;;;;;;9.27;6.53;;;;;;;15.72;100.00;101259.69;5286091;28;20040;-83
2023/08/05 06:41:26;;;;;;;10.87;6.33;;;;;;;15.60;100.00;101270.50;5283939;28;20041;-82
2023/08/05 06:43:57;;;;;;;9.10;5.93;;;;;;;15.71;100.00;101262.34;5284577;28;20041;-83
2023/08/05 06:46:28;;;;;;;10.30;6.07;;;;;;;15.69;100.00;101257.13;5283700;28;20127;-83
2023/08/05 06:49:00;;;;;;;7.27;6.13;;;;;;;15.70;100.00;101258.88;5283660;28;20029;-83
2023/08/05 06:51:34;;;;;;;10.03;7.60;;;;;;;15.68;100.00;101260.66;5284641;28;20041;-81
2023/08/05 06:54:05;;;;;;;8.88;6.70;;;;;;;15.77;100.00;101251.72;5283806;28;20059;-82
2023/08/05 06:56:37;;;;;;;10.30;7.10;;;;;;;15.84;100.00;101253.25;5284751;28;20118;-81
2023/08/05 06:59:08;;;;;;;9.63;7.10;;;;;;;15.96;100.00;101246.81;5285161;28;20475;-82
2023/08/05 07:01:40;;;;;;;8.13;7.33;;;;;;;16.16;100.00;101241.84;5284694;28;20033;-82
2023/08/05 07:04:14;;;;;;;9.77;7.05;;;;;;;16.24;99.99;101239.00;5285177;28;20159;-82
2023/08/05 07:06:45;;;;;;;8.73;7.30;;;;;;;16.30;99.90;101228.28;5285341;28;20032;-81
2023/08/05 07:09:16;;;;;;;8.23;6.97;;;;;;;16.37;98.60;101228.97;5286085;28;20506;-82
2023/08/05 07:11:48;;;;;;;9.47;6.37;;;;;;;16.54;98.47;101231.97;5283966;28;20121;-82
2023/08/05 07:14:19;;;;;;;9.37;6.40;;;;;;;16.69;96.80;101235.88;5285358;28;20074;-84
2023/08/05 07:16:51;;;;;;;10.47;6.20;;;;;;;16.70;94.57;101229.72;5285232;28;20039;-82
2023/08/05 07:19:22;;;;;;;7.80;5.20;;;;;;;16.84;94.72;101231.03;5285394;28;20036;-83
2023/08/05 07:21:54;;;;;;;8.43;5.83;;;;;;;16.88;93.24;101235.34;5282186;28;20278;-80
2023/08/05 07:24:25;;;;;;;9.57;5.80;;;;;;;16.84;93.90;101228.41;5284037;28;20046;-81
2023/08/05 07:26:56;;;;;;;7.77;5.20;;;;;;;17.03;93.64;101229.56;5285207;28;20036;-82
2023/08/05 07:29:28;;;;;;;7.27;5.70;;;;;;;16.99;91.68;101225.34;5285563;28;20029;-81
2023/08/05 07:31:59;;;;;;;7.83;4.97;;;;;;;17.07;92.46;101240.88;5283560;28;20040;-80
2023/08/05 07:34:32;;;;;;;9.00;5.27;;;;;;;17.29;92.11;101238.38;5285592;28;20043;-82
2023/08/05 07:37:05;;;;;;;5.93;4.75;;;;;;;17.40;90.36;101233.59;5284001;28;20344;-84
2023/08/05 07:39:37;;;;;;;;;;;;;;;17.75;91.35;101235.94;5290382;28;20048;-84
2023/08/05 07:42:09;;;;;;;7.95;5.18;;;;;;;17.74;90.04;101234.22;5286034;28;19912;-84
2023/08/05 07:44:42;;;;;;;7.13;4.43;;;;;;;17.72;88.48;101229.00;5285300;28;20086;-84
2023/08/05 07:47:14;;;;;;;6.30;5.30;;;;;;;17.55;86.91;101226.09;5282864;28;20111;-81
2023/08/05 07:49:45;;;;;;;9.48;4.85;;;;;;;17.61;87.41;101221.50;5292522;28;20055;-83
2023/08/05 07:52:17;;;;;;;7.27;4.70;;;;;;;17.59;87.57;101219.81;5302475;28;20036;-83
2023/08/05 07:54:48;;;;;;;4.97;4.47;;;;;;;17.88;88.47;101210.88;5300680;28;20486;-82
2023/08/05 07:57:19;;;;;;;9.03;5.63;;;;;;;18.07;86.42;101210.22;5296755;28;20035;-85
2023/08/05 07:59:52;;;;;;;7.63;4.33;;;;;;;18.21;84.96;101203.50;5297578;28;20029;-84
2023/08/05 08:02:24;;;;;;;8.45;4.68;;;;;;;18.48;83.83;101190.16;5286676;28;20028;-83
2023/08/05 08:04:58;;;;;;;7.05;5.20;;;;;;;19.00;82.29;101184.56;5283691;28;20135;-84
2023/08/05 08:07:30;;;;;;;7.13;4.25;;;;;;;19.36;78.83;101178.63;5284114;28;20489;-85
2023/08/05 08:10:01;;;;;;;5.67;3.90;;;;;;;19.31;78.55;101184.13;5289787;28;20116;-84
2023/08/05 08:12:32;;;;;;;6.37;3.70;;;;;;;19.02;76.49;101182.72;5286364;28;20099;-82
2023/08/05 08:15:05;;;;;;;4.93;3.43;;;;;;;19.05;78.41;101190.53;5282963;28;20626;-83
2023/08/05 08:17:36;;;;;;;7.70;3.47;;;;;;;18.89;78.46;101169.16;5283216;28;20037;-85
2023/08/05 08:20:13;;;;;;;8.43;3.23;;;;;;;19.06;77.67;101172.88;5284215;28;20556;-84
2023/08/05 08:22:45;;;;;;;5.03;2.95;;;;;;;19.12;78.28;101167.34;5283350;28;20075;-84
2023/08/05 08:25:16;;;;;;;4.50;2.97;;;;;;;19.06;77.42;101160.53;5284137;28;20416;-85
2023/08/05 08:27:47;;;;;;;6.77;3.30;;;;;;;18.85;77.60;101170.22;5283795;28;20032;-84
2023/08/05 08:30:19;;;;;;;7.00;2.70;;;;;;;18.70;77.13;101165.53;5284252;28;20383;-85
2023/08/05 08:32:50;;;;;;;5.13;2.40;;;;;;;18.89;77.60;101169.16;5283331;28;20115;-83
2023/08/05 08:35:21;;;;;;;5.50;3.07;;;;;;;18.78;75.90;101164.28;5283527;28;20371;-83
2023/08/05 08:37:53;;;;;;;6.10;3.03;;;;;;;18.99;76.06;101159.06;5283492;28;20060;-85
2023/08/05 08:40:24;;;;;;;7.93;3.23;;;;;;;19.10;76.66;101145.41;5285675;28;20060;-84
2023/08/05 08:42:56;;;;;;;5.97;2.73;;;;;;;19.12;75.24;101140.91;5300274;28;20475;-85
2023/08/05 08:45:32;;;;;;;3.60;2.63;;;;;;;19.26;76.18;101132.41;5284006;28;20079;-82
2023/08/05 08:48:06;;;;;;;6.07;3.35;;;;;;;19.48;74.64;101137.56;5294696;28;20270;-85
2023/08/05 08:50:39;;;;;;;5.78;2.50;;;;;;;19.85;72.92;101128.00;5283918;28;20036;-84
2023/08/05 08:53:12;;;;;;;6.20;2.78;;;;;;;20.02;72.15;101125.44;5290818;28;20032;-83
2023/08/05 08:55:43;;;;;;;3.35;2.25;;;;;;;20.06;70.06;101122.66;5295975;28;20080;-82
2023/08/05 08:58:15;;;;;;;3.50;2.37;;;;;;;20.39;70.29;101123.69;5293493;28;20099;-84
2023/08/05 09:00:47;;;;;;;3.00;1.97;;;;;;;20.54;66.60;101127.38;5288168;28;20096;-86
2023/08/05 09:03:23;;;;;;;6.18;2.75;;;;;;;20.79;66.22;101123.53;5298467;28;20393;-84
2023/08/05 09:05:59;;;;;;;5.80;2.65;;;;;;;20.81;65.81;101124.31;5291044;28;20048;-86
2023/08/05 09:08:32;;;;;;;4.97;2.63;;;;;;;20.64;65.48;101108.41;5290277;28;20032;-83
2023/08/05 09:11:04;;;;;;;4.95;2.40;;;;;;;20.91;66.62;101107.03;5299403;28;20038;-84
2023/08/05 09:13:38;;;;;;;3.37;2.20;;;;;;;20.75;66.53;101109.59;5288153;28;20456;-86
2023/08/05 09:16:13;;;;;;;5.95;2.60;;;;;;;20.55;66.70;101105.25;5291625;28;20505;-84
2023/08/05 09:18:55;;;;;;;5.78;3.38;;;;;;;20.20;67.98;101091.09;5287430;28;20031;-84
2023/08/05 09:21:28;;;;;;;5.45;2.53;;;;;;;19.80;69.50;101087.69;5288208;28;20031;-85
2023/08/05 09:23:59;;;;;;;4.05;2.65;;;;;;;19.66;70.72;101077.72;5295335;28;20052;-86
2023/08/05 09:26:32;;;;;;;7.33;3.00;;;;;;;19.45;70.67;101079.56;5295459;28;20039;-85
2023/08/05 09:29:04;;;;;;;4.75;2.80;;;;;;;19.24;72.54;101073.44;5286746;28;20041;-86
2023/08/05 09:31:35;;;;;;;7.68;4.18;;;;;;;19.21;73.80;101065.69;5292252;28;20032;-87
2023/08/05 09:34:08;;;;;;;7.27;2.90;;;;;;;19.18;73.93;101064.00;5283037;28;20085;-85
2023/08/05 09:36:40;;;;;;;10.65;3.40;;;;;;;19.42;74.71;101058.56;5297068;28;20020;-86
2023/08/05 09:39:15;;;;;;;5.60;3.35;;;;;;;19.45;74.94;101061.06;5285484;28;20158;-86
2023/08/05 09:41:53;;;;;;;6.43;3.28;;;;;;;19.34;74.32;101055.41;5285814;28;20032;-85
2023/08/05 09:44:24;;;;;;;7.15;3.70;;;;;;;19.45;74.39;101056.63;5286292;28;20035;-86
2023/08/05 09:47:01;;;;;;;4.70;3.50;;;;;;;19.41;73.55;101051.56;5283338;28;20024;-87
2023/08/05 09:49:37;;;;;;;6.50;3.03;;;;;;;19.46;72.32;101046.91;5282657;28;20045;-85
2023/08/05 09:52:10;;;;;;;6.65;3.45;;;;;;;19.64;71.91;101050.47;5282355;28;20021;-85
2023/08/05 09:54:44;;;;;;;4.35;3.22;;;;;;;19.65;71.38;101039.81;5282878;28;20376;-86
2023/08/05 09:57:19;;;;;;;5.40;3.30;;;;;;;19.55;71.69;101030.63;5281992;28;20087;-89
2023/08/05 09:59:53;;;;;;;5.30;3.22;;;;;;;19.39;71.57;101035.75;5285901;28;20032;-85
2023/08/05 10:02:25;;;;;;;6.82;3.17;;;;;;;19.27;72.69;101028.38;5285199;28;20418;-84
2023/08/05 10:04:57;;;;;;;4.93;2.78;;;;;;;19.41;73.53;101027.75;5286664;28;20126;-87
2023/08/05 10:07:29;;;;;;;5.43;3.13;;;;;;;19.68;72.74;101031.75;5286417;28;20080;-87
2023/08/05 10:10:01;;;;;;;6.25;3.10;;;;;;;19.94;71.14;101027.03;5286077;28;20078;-86
2023/08/05 10:12:39;;;;;;;5.63;2.93;;;;;;;19.93;70.57;101014.78;5286621;28;20029;-87
2023/08/05 10:15:17;;;;;;;7.85;3.72;;;;;;;19.58;71.85;101014.63;5285564;28;20275;-85
2023/08/05 10:17:48;;;;;;;6.72;3.33;;;;;;;19.23;73.50;101017.09;5285708;28;20021;-85
2023/08/05 10:20:20;;;;;;;6.63;3.73;;;;;;;18.58;77.91;101011.97;5284785;28;20059;-82
2023/08/05 10:23:03;;;;;;;8.27;4.30;;;;;;;18.25;81.39;101005.47;5283851;28;20028;-84
2023/08/05 10:25:38;;;;;;;5.57;4.03;;;;;;;18.43;82.13;101007.34;5284912;28;20379;-84
2023/08/05 10:28:10;;;;;;;6.38;3.90;;;;;;;18.63;82.18;101005.63;5285375;28;20021;-84
2023/08/05 10:30:43;;;;;;;6.40;4.20;;;;;;;18.38;82.26;101011.94;5285585;28;20040;-85
2023/08/05 10:33:15;;;;;;;7.57;4.60;;;;;;;18.39;83.78;101003.97;5286529;28;20082;-83
2023/08/05 10:35:49;;;;;;;7.15;4.72;;;;;;;18.56;83.70;101005.03;5287620;28;20090;-85
2023/08/05 10:38:22;;;;;;;10.45;4.22;;;;;;;19.01;83.74;100995.22;5286119;28;20033;-85
2023/08/05 10:41:04;;;;;;;6.00;4.10;;;;;;;19.25;81.06;100993.25;5285591;28;20357;-84
2023/08/05 10:43:41;;;;;;;6.22;4.13;;;;;;;19.38;77.20;100991.72;5284644;28;20032;-85
2023/08/05 10:46:12;;;;;;;6.38;3.95;;;;;;;19.96;74.05;100993.41;5283319;28;20234;-85
2023/08/05 10:48:48;;;;;;;6.67;3.70;;;;;;;19.99;71.37;100998.56;5284237;28;20120;-86
2023/08/05 10:51:25;;;;;;;7.55;3.78;;;;;;;19.78;72.28;101002.25;5286676;28;20039;-83
2023/08/05 10:53:56;;;;;;;6.45;4.13;;;;;;;19.83;71.14;100992.31;5285576;28;20040;-84
2023/08/05 10:56:35;;;;;;;6.43;3.27;;;;;;;19.81;70.62;101002.97;5287082;28;20426;-86
2023/08/05 10:59:06;;;;;;;5.93;3.35;;;;;;;19.82;71.13;100994.13;5270107;28;20029;-84
2023/08/05 11:01:57;;;;;;;5.57;3.60;;;;;;;20.13;71.62;100997.91;5284124;28;20349;-86
2023/08/05 11:04:32;;;;;;;4.63;3.13;;;;;;;19.76;69.60;100982.97;5285053;28;20048;-83
2023/08/05 11:07:04;;;;;;;6.18;3.20;;;;;;;20.04;69.00;100993.94;5284365;28;20040;-84
2023/08/05 11:09:36;;;;;;;7.57;3.63;;;;;;;20.34;66.67;100988.03;5284423;28;20036;-84
2023/08/05 11:12:07;;;;;;;6.93;3.33;;;;;;;20.09;68.07;100979.59;5284626;28;20040;-86
2023/08/05 11:14:39;;;;;;;4.67;3.73;;;;;;;19.59;70.43;100978.44;5287427;28;20031;-83
2023/08/05 11:17:11;;;;;;;5.70;3.50;;;;;;;19.33;70.46;100971.75;5284876;28;20275;-83
2023/08/05 11:19:53;;;;;;;9.90;3.45;;;;;;;19.22;72.42;100969.59;5284678;28;20128;-81
2023/08/05 11:22:29;;;;;;;6.93;3.53;;;;;;;19.08;73.03;100965.81;5283015;28;20090;-84
2023/08/05 11:25:03;;;;;;;5.45;3.17;;;;;;;18.75;73.24;100954.94;5284451;28;20111;-82
2023/08/05 11:27:43;;;;;;;4.78;3.20;;;;;;;18.65;73.39;100943.06;5284456;28;20039;-82
2023/08/05 11:30:16;;;;;;;6.38;3.67;;;;;;;18.70;75.27;100949.00;5282591;28;20036;-83
2023/08/05 11:32:56;;;;;;;7.22;3.15;;;;;;;18.79;74.85;100945.97;5283630;28;20047;-82
2023/08/05 11:35:27;;;;;;;3.30;2.88;;;;;;;18.82;73.35;100947.59;5284549;28;20036;-82
2023/08/05 11:37:59;;;;;;;5.97;3.17;;;;;;;18.78;73.68;100941.59;5283994;28;20035;-82
2023/08/05 11:40:30;;;;;;;4.80;3.10;;;;;;;18.80;73.21;100928.31;5284593;28;20467;-83